Terminal Aerodrome Forecast
Issued by NWS Houston/Galveston TX

Home | Current Version | Previous Version | Text Only | Print | Product List | Glossary On
Versions: 1 2 3 4 5 6 7 8 9 10 11 12 13 14 15 16 17 18 19 20 21 22 23 24 25 26 27 28 29
000
FTUS44 KHGX 180302 AAA
TAFHOU
TAF AMD
KHOU 180302Z 1803/1824 19008KT P6SM SCT015
     FM180900 20008KT P6SM BKN015
     FM181600 23014G22KT P6SM SCT025
     FM182100 30016G24KT P6SM SCT050=

USA.gov is the U.S. government's official web portal to all federal, state and local government web resources and services.